Time;durP1;ratioP1;P1;durP2;ratioP2;P2;SDS_P1;SDS_P2;PMS_P1;PMS_P2;Temp;Humidity;BMP_temperature;BMP_pressure;BME280_temperature;BME280_humidity;BME280_pressure;Samples;Min_cycle;Max_cycle;Signal;HPM_P1;HPM_P2
2021/09/22 00:02:51;;;;;;;2.97;1.70;;;;;;;;;;4991678;28;20038;-73
2021/09/22 00:05:55;;;;;;;7.32;1.88;;;;;;;;;;4993659;28;20042;-73
2021/09/22 00:09:00;;;;;;;4.70;1.75;;;;;;;;;;4994528;28;20035;-72
2021/09/22 00:12:05;;;;;;;8.35;1.55;;;;;;;;;;4994777;28;20042;-72
2021/09/22 00:15:11;;;;;;;5.25;1.80;;;;;;;;;;4994307;28;20513;-72
2021/09/22 00:18:16;;;;;;;7.10;1.70;;;;;;;;;;4994426;28;20042;-72
2021/09/22 00:21:20;;;;;;;6.38;1.52;;;;;;;;;;4994502;28;20038;-73
2021/09/22 00:24:26;;;;;;;7.10;2.00;;;;;;;;;;4994126;28;20050;-72
2021/09/22 00:27:29;;;;;;;4.38;1.77;;;;;;;;;;4994506;28;20501;-73
2021/09/22 00:30:47;;;;;;;5.55;1.88;;;;;;;;;;4994065;28;20050;-72
2021/09/22 00:33:52;;;;;;;5.32;1.50;;;;;;;;;;4993827;28;20486;-73
2021/09/22 00:36:56;;;;;;;6.07;1.80;;;;;;;;;;4994033;28;20038;-72
2021/09/22 00:40:00;;;;;;;3.28;1.70;;;;;;;;;;4993954;28;20375;-73
2021/09/22 00:43:04;;;;;;;5.13;1.85;;;;;;;;;;4994196;28;20046;-72
2021/09/22 00:46:08;;;;;;;7.75;1.80;;;;;;;;;;4993733;28;20095;-72
2021/09/22 00:49:13;;;;;;;4.88;1.83;;;;;;;;;;4993832;28;20038;-73
2021/09/22 00:52:24;;;;;;;12.80;1.92;;;;;;;;;;4981725;28;20391;-73
2021/09/22 00:55:29;;;;;;;3.90;1.60;;;;;;;;;;4981650;28;20047;-72
2021/09/22 00:58:33;;;;;;;3.15;1.42;;;;;;;;;;4993726;28;20056;-72
2021/09/22 01:01:38;;;;;;;3.67;1.67;;;;;;;;;;4981563;28;20042;-72
2021/09/22 01:04:42;;;;;;;5.93;1.67;;;;;;;;;;4993440;28;20046;-72
2021/09/22 01:07:47;;;;;;;6.38;1.73;;;;;;;;;;4993713;28;20042;-73
2021/09/22 01:10:52;;;;;;;3.35;1.70;;;;;;;;;;4993437;28;20371;-72
2021/09/22 01:13:56;;;;;;;3.65;1.65;;;;;;;;;;4993437;28;20038;-72
2021/09/22 01:17:00;;;;;;;6.00;1.48;;;;;;;;;;4980500;28;20047;-72
2021/09/22 01:20:07;;;;;;;5.90;1.92;;;;;;;;;;4993447;28;20030;-73
2021/09/22 01:23:15;;;;;;;5.93;1.73;;;;;;;;;;4981190;28;20039;-73
2021/09/22 01:26:19;;;;;;;4.88;1.65;;;;;;;;;;4980999;28;20042;-72
2021/09/22 01:29:24;;;;;;;4.68;1.60;;;;;;;;;;4993140;28;20039;-72
2021/09/22 01:32:34;;;;;;;3.28;1.65;;;;;;;;;;4980719;28;20368;-71
2021/09/22 01:35:44;;;;;;;5.65;2.10;;;;;;;;;;4981036;28;20411;-72
2021/09/22 01:38:53;;;;;;;4.45;2.03;;;;;;;;;;4980908;28;20046;-72
2021/09/22 01:41:58;;;;;;;4.68;1.67;;;;;;;;;;4980885;28;20038;-73
2021/09/22 01:45:06;;;;;;;7.10;2.00;;;;;;;;;;4980493;28;20046;-72
2021/09/22 01:48:15;;;;;;;7.18;1.60;;;;;;;;;;4980544;28;20043;-72
2021/09/22 01:51:23;;;;;;;5.47;1.90;;;;;;;;;;4980778;28;20042;-72
2021/09/22 01:54:41;;;;;;;6.85;1.42;;;;;;;;;;4980392;28;20482;-72
2021/09/22 01:57:46;;;;;;;11.05;1.90;;;;;;;;;;4980350;28;20038;-73
2021/09/22 02:00:58;;;;;;;4.03;1.45;;;;;;;;;;4980487;28;20038;-72
2021/09/22 02:04:15;;;;;;;7.72;1.55;;;;;;;;;;4980270;28;20050;-72
2021/09/22 02:07:28;;;;;;;3.25;1.58;;;;;;;;;;4980211;28;20355;-73
2021/09/22 02:10:37;;;;;;;2.08;1.55;;;;;;;;;;4980274;28;20038;-72
2021/09/22 02:13:43;;;;;;;3.75;1.40;;;;;;;;;;4980360;28;20490;-73
2021/09/22 02:16:53;;;;;;;3.97;1.60;;;;;;;;;;4980088;28;20030;-72
2021/09/22 02:20:00;;;;;;;3.17;1.50;;;;;;;;;;4980345;28;20368;-73
2021/09/22 02:23:15;;;;;;;3.55;2.10;;;;;;;;;;4980003;28;20034;-73
2021/09/22 02:26:20;;;;;;;5.03;1.98;;;;;;;;;;4979885;28;20038;-73
2021/09/22 02:29:25;;;;;;;6.10;1.60;;;;;;;;;;4978971;28;20042;-72
2021/09/22 02:32:29;;;;;;;5.07;1.50;;;;;;;;;;4979883;28;20522;-72
2021/09/22 02:35:36;;;;;;;6.13;2.00;;;;;;;;;;4979608;28;20179;-72
2021/09/22 02:39:01;;;;;;;5.15;1.80;;;;;;;;;;4979875;28;20052;-73
2021/09/22 02:42:08;;;;;;;4.15;1.55;;;;;;;;;;4991718;28;20038;-72
2021/09/22 02:45:13;;;;;;;4.50;1.48;;;;;;;;;;4979459;28;20054;-72
2021/09/22 02:48:18;;;;;;;7.38;1.67;;;;;;;;;;4979679;28;20038;-72
2021/09/22 02:51:23;;;;;;;3.22;1.40;;;;;;;;;;4979437;28;20494;-72
2021/09/22 02:54:27;;;;;;;6.47;1.60;;;;;;;;;;4991571;28;20046;-72
2021/09/22 02:57:51;;;;;;;4.45;1.50;;;;;;;;;;4991875;28;20474;-73
2021/09/22 03:00:57;;;;;;;5.15;1.70;;;;;;;;;;4979575;28;20042;-72
2021/09/22 03:04:01;;;;;;;4.93;1.80;;;;;;;;;;4979352;28;20050;-73
2021/09/22 03:07:07;;;;;;;4.38;1.55;;;;;;;;;;4979550;28;20034;-73
2021/09/22 03:10:11;;;;;;;5.47;1.60;;;;;;;;;;4979523;28;20547;-73
2021/09/22 03:13:17;;;;;;;8.60;1.80;;;;;;;;;;4979735;28;20038;-73
2021/09/22 03:16:21;;;;;;;4.18;1.70;;;;;;;;;;4979548;28;20046;-72
2021/09/22 03:19:26;;;;;;;3.55;1.65;;;;;;;;;;4979552;28;20497;-72
2021/09/22 03:22:30;;;;;;;10.18;1.40;;;;;;;;;;4979371;28;20370;-73
2021/09/22 03:25:55;;;;;;;5.28;1.55;;;;;;;;;;4991402;28;20061;-73
2021/09/22 03:28:59;;;;;;;3.15;1.38;;;;;;;;;;4991424;28;20042;-73
2021/09/22 03:32:04;;;;;;;4.25;1.52;;;;;;;;;;4979362;28;20442;-73
2021/09/22 03:35:09;;;;;;;5.72;1.60;;;;;;;;;;4979154;28;20498;-72
2021/09/22 03:38:13;;;;;;;4.10;1.60;;;;;;;;;;4991305;28;20031;-72
2021/09/22 03:41:17;;;;;;;6.65;1.65;;;;;;;;;;4982294;28;20046;-72
2021/09/22 03:44:22;;;;;;;8.23;1.60;;;;;;;;;;4995008;28;20050;-72
2021/09/22 03:47:27;;;;;;;5.82;2.05;;;;;;;;;;4982856;28;20030;-72
2021/09/22 03:50:31;;;;;;;4.10;1.80;;;;;;;;;;4994951;28;20371;-72
2021/09/22 03:53:39;;;;;;;5.82;1.60;;;;;;;;;;4994840;28;20065;-72
2021/09/22 03:56:43;;;;;;;5.32;1.70;;;;;;;;;;4982575;28;20030;-72
2021/09/22 03:59:48;;;;;;;5.90;2.20;;;;;;;;;;4982703;28;20042;-72
2021/09/22 04:02:52;;;;;;;6.25;2.45;;;;;;;;;;4982860;28;20038;-72
2021/09/22 04:05:56;;;;;;;3.38;2.10;;;;;;;;;;4994431;28;20042;-72
2021/09/22 04:09:00;;;;;;;7.10;2.10;;;;;;;;;;4982290;28;20034;-72
2021/09/22 04:12:05;;;;;;;3.70;2.10;;;;;;;;;;4982422;28;20502;-72
2021/09/22 04:15:10;;;;;;;5.70;2.33;;;;;;;;;;4982407;28;20034;-73
2021/09/22 04:18:15;;;;;;;5.07;2.15;;;;;;;;;;4982190;28;20043;-72
2021/09/22 04:21:19;;;;;;;4.95;2.30;;;;;;;;;;4982329;28;20034;-73
2021/09/22 04:24:24;;;;;;;12.00;2.22;;;;;;;;;;4982066;28;20047;-72
2021/09/22 04:27:28;;;;;;;7.57;2.38;;;;;;;;;;4982494;28;20599;-72
2021/09/22 04:30:48;;;;;;;9.45;2.17;;;;;;;;;;4982591;28;20042;-73
2021/09/22 04:34:11;;;;;;;8.13;1.85;;;;;;;;;;4993866;28;20391;-72
2021/09/22 04:37:36;;;;;;;6.15;2.00;;;;;;;;;;4993954;28;20046;-72
2021/09/22 04:40:59;;;;;;;13.32;1.80;;;;;;;;;;4994006;28;20034;-72
2021/09/22 04:44:21;;;;;;;5.72;1.63;;;;;;;;;;4993769;28;20054;-73
2021/09/22 04:47:44;;;;;;;14.93;2.05;;;;;;;;;;4994058;28;20035;-72
2021/09/22 04:51:08;;;;;;;11.73;2.53;;;;;;;;;;4993385;28;20034;-73
2021/09/22 04:54:41;;;;;;;9.63;1.83;;;;;;;;;;4944008;28;20046;-72
2021/09/22 04:58:04;;;;;;;7.13;2.35;;;;;;;;;;4993773;28;20034;-72
2021/09/22 05:01:27;;;;;;;9.10;1.83;;;;;;;;;;4993510;28;20042;-73
2021/09/22 05:04:49;;;;;;;7.90;2.15;;;;;;;;;;4993325;28;20493;-72
2021/09/22 05:08:12;;;;;;;6.38;2.17;;;;;;;;;;4993443;28;20043;-72
2021/09/22 05:11:36;;;;;;;7.50;2.10;;;;;;;;;;4993618;28;20050;-73
2021/09/22 05:14:58;;;;;;;6.78;1.88;;;;;;;;;;4992894;28;20034;-72
2021/09/22 05:18:21;;;;;;;10.98;2.25;;;;;;;;;;4993595;28;20030;-72
2021/09/22 05:21:43;;;;;;;12.40;2.15;;;;;;;;;;4993202;28;20055;-73
2021/09/22 05:25:06;;;;;;;11.20;3.15;;;;;;;;;;4992947;28;20062;-72
2021/09/22 05:28:29;;;;;;;11.45;4.38;;;;;;;;;;4993115;28;20046;-72
2021/09/22 05:31:52;;;;;;;6.90;2.72;;;;;;;;;;4993109;28;20053;-72
2021/09/22 05:35:15;;;;;;;3.42;1.83;;;;;;;;;;4992715;28;20074;-72
2021/09/22 05:38:38;;;;;;;6.50;1.73;;;;;;;;;;4993015;28;20046;-72
2021/09/22 05:42:01;;;;;;;9.60;1.70;;;;;;;;;;4992789;28;20047;-72
2021/09/22 05:45:24;;;;;;;7.72;1.60;;;;;;;;;;4992645;28;20038;-73
2021/09/22 05:48:47;;;;;;;6.95;1.98;;;;;;;;;;4992958;28;20042;-73
2021/09/22 05:52:10;;;;;;;20.15;2.50;;;;;;;;;;4992553;28;20046;-72
2021/09/22 05:55:32;;;;;;;9.93;1.90;;;;;;;;;;4992354;28;20039;-72
2021/09/22 05:58:55;;;;;;;5.97;2.50;;;;;;;;;;4980339;28;20042;-72
2021/09/22 06:02:19;;;;;;;4.55;2.03;;;;;;;;;;4992354;28;20482;-71
2021/09/22 06:05:41;;;;;;;8.45;2.30;;;;;;;;;;4992231;28;20050;-71
2021/09/22 06:09:05;;;;;;;9.68;2.28;;;;;;;;;;4992852;28;20039;-71
2021/09/22 06:12:29;;;;;;;7.68;2.40;;;;;;;;;;4992541;28;20077;-72
2021/09/22 06:15:34;;;;;;;12.75;2.20;;;;;;;;;;4992268;28;20034;-71
2021/09/22 06:18:40;;;;;;;9.57;2.35;;;;;;;;;;4980349;28;20065;-72
2021/09/22 06:21:48;;;;;;;9.15;2.45;;;;;;;;;;4980024;28;20498;-73
2021/09/22 06:24:53;;;;;;;6.47;2.33;;;;;;;;;;4991691;28;20383;-72
2021/09/22 06:27:57;;;;;;;12.45;2.40;;;;;;;;;;4991789;28;20038;-73
2021/09/22 06:31:02;;;;;;;6.70;2.05;;;;;;;;;;4979857;28;20055;-72
2021/09/22 06:34:07;;;;;;;8.38;2.30;;;;;;;;;;4991513;28;20050;-71
2021/09/22 06:37:12;;;;;;;7.72;2.15;;;;;;;;;;4990151;28;20366;-74
2021/09/22 06:40:30;;;;;;;5.97;1.85;;;;;;;;;;4979848;28;20042;-71
2021/09/22 06:43:39;;;;;;;7.90;2.33;;;;;;;;;;4979759;28;20050;-72
2021/09/22 06:46:43;;;;;;;7.47;1.77;;;;;;;;;;4979796;28;20038;-71
2021/09/22 06:49:48;;;;;;;9.68;2.10;;;;;;;;;;4990451;28;20038;-73
2021/09/22 06:52:52;;;;;;;8.32;1.83;;;;;;;;;;4979035;28;20030;-72
2021/09/22 06:55:57;;;;;;;12.57;2.40;;;;;;;;;;4990894;28;20547;-72
2021/09/22 06:59:01;;;;;;;5.60;2.28;;;;;;;;;;4991486;28;20065;-73
2021/09/22 07:02:05;;;;;;;5.18;2.05;;;;;;;;;;4991850;28;20042;-72
2021/09/22 07:05:11;;;;;;;13.73;2.35;;;;;;;;;;4991529;28;20046;-72
2021/09/22 07:08:15;;;;;;;9.55;2.25;;;;;;;;;;4991747;28;20059;-73
2021/09/22 07:11:19;;;;;;;8.07;2.45;;;;;;;;;;4991523;28;20344;-72
2021/09/22 07:14:24;;;;;;;16.20;2.63;;;;;;;;;;4991447;28;20039;-72
2021/09/22 07:17:28;;;;;;;5.35;1.77;;;;;;;;;;4983386;28;20049;-73
2021/09/22 07:20:35;;;;;;;8.05;2.17;;;;;;;;;;4995466;28;20038;-72
2021/09/22 07:23:40;;;;;;;9.00;2.55;;;;;;;;;;4995357;28;20043;-72
2021/09/22 07:26:44;;;;;;;7.13;2.55;;;;;;;;;;4995567;28;20042;-69
2021/09/22 07:29:49;;;;;;;9.75;3.30;;;;;;;;;;4995283;28;20046;-70
2021/09/22 07:32:59;;;;;;;7.40;2.60;;;;;;;;;;4995319;28;20054;-69
2021/09/22 07:36:05;;;;;;;18.70;3.97;;;;;;;;;;4995066;28;20038;-70
2021/09/22 07:39:10;;;;;;;13.13;5.00;;;;;;;;;;4995448;28;20042;-73
2021/09/22 07:42:15;;;;;;;13.32;4.85;;;;;;;;;;4983627;28;20046;-73
2021/09/22 07:45:23;;;;;;;8.43;2.60;;;;;;;;;;4994876;28;20391;-72
2021/09/22 07:48:27;;;;;;;11.30;4.30;;;;;;;;;;4982837;28;20035;-73
2021/09/22 07:51:32;;;;;;;8.40;2.40;;;;;;;;;;4994968;28;20043;-73
2021/09/22 07:54:36;;;;;;;6.93;2.40;;;;;;;;;;4994898;28;20034;-71
2021/09/22 07:57:41;;;;;;;14.95;3.38;;;;;;;;;;4994912;28;20046;-73
2021/09/22 08:00:46;;;;;;;6.68;2.55;;;;;;;;;;4995167;28;20043;-72
2021/09/22 08:04:06;;;;;;;7.53;2.50;;;;;;;;;;4984795;28;20050;-73
2021/09/22 08:07:10;;;;;;;6.38;2.67;;;;;;;;;;4994916;28;20034;-72
2021/09/22 08:10:16;;;;;;;10.38;2.72;;;;;;;;;;4994520;28;20051;-72
2021/09/22 08:13:21;;;;;;;8.15;2.40;;;;;;;;;;4994834;28;20062;-77
2021/09/22 08:16:25;;;;;;;9.27;2.75;;;;;;;;;;4994338;28;20042;-76
2021/09/22 08:19:30;;;;;;;5.10;2.28;;;;;;;;;;4994741;28;20042;-75
2021/09/22 08:22:34;;;;;;;8.45;2.67;;;;;;;;;;4994904;28;20042;-74
2021/09/22 08:25:39;;;;;;;9.55;2.33;;;;;;;;;;4994281;28;20042;-73
2021/09/22 08:28:43;;;;;;;8.73;2.72;;;;;;;;;;4994237;28;20042;-74
2021/09/22 08:31:48;;;;;;;8.50;3.28;;;;;;;;;;4994170;28;20042;-73
2021/09/22 08:34:52;;;;;;;10.82;3.17;;;;;;;;;;4993868;28;20050;-74
2021/09/22 08:37:57;;;;;;;7.93;3.35;;;;;;;;;;4993961;28;20039;-70
2021/09/22 08:41:01;;;;;;;13.45;4.30;;;;;;;;;;4994030;28;20042;-72
2021/09/22 08:44:06;;;;;;;8.77;3.83;;;;;;;;;;4993916;28;20049;-73
2021/09/22 08:47:10;;;;;;;9.30;4.15;;;;;;;;;;4994191;28;20135;-72
2021/09/22 08:50:15;;;;;;;7.47;3.83;;;;;;;;;;4993977;28;20034;-71
2021/09/22 08:53:19;;;;;;;13.85;4.07;;;;;;;;;;4981801;28;20042;-72
2021/09/22 08:56:27;;;;;;;9.60;3.25;;;;;;;;;;4993480;28;20053;-73
2021/09/22 08:59:32;;;;;;;17.60;3.53;;;;;;;;;;4981813;28;20034;-71
2021/09/22 09:02:37;;;;;;;8.73;3.20;;;;;;;;;;4993683;28;20043;-71
2021/09/22 09:05:42;;;;;;;13.50;4.20;;;;;;;;;;4981357;28;20050;-72
2021/09/22 09:08:46;;;;;;;10.75;3.20;;;;;;;;;;4993445;28;20146;-71
2021/09/22 09:11:50;;;;;;;10.07;3.30;;;;;;;;;;4992626;28;20075;-72
2021/09/22 09:14:56;;;;;;;9.90;3.35;;;;;;;;;;4992271;28;20088;-71
2021/09/22 09:18:10;;;;;;;9.40;3.38;;;;;;;;;;4993563;28;20046;-72
2021/09/22 09:21:14;;;;;;;13.40;3.30;;;;;;;;;;4993706;28;20038;-71
2021/09/22 09:24:28;;;;;;;9.70;3.33;;;;;;;;;;4993456;28;20410;-71
2021/09/22 09:27:37;;;;;;;5.43;2.60;;;;;;;;;;4981230;28;20030;-72
2021/09/22 09:30:44;;;;;;;10.90;3.05;;;;;;;;;;4993352;28;20038;-71
2021/09/22 09:33:50;;;;;;;14.25;3.42;;;;;;;;;;4993063;28;20061;-72
2021/09/22 09:36:54;;;;;;;6.57;3.47;;;;;;;;;;4980957;28;20394;-71
2021/09/22 09:39:59;;;;;;;9.85;3.30;;;;;;;;;;4993116;28;20038;-71
2021/09/22 09:43:07;;;;;;;10.15;4.22;;;;;;;;;;4992880;28;20034;-72
2021/09/22 09:46:18;;;;;;;12.82;2.83;;;;;;;;;;4992656;28;20050;-71
2021/09/22 09:49:24;;;;;;;16.67;4.00;;;;;;;;;;4992781;28;20023;-71
2021/09/22 09:52:57;;;;;;;11.88;3.70;;;;;;;;;;4992914;28;20053;-72
2021/09/22 09:56:04;;;;;;;8.35;3.90;;;;;;;;;;4992304;28;20050;-70
2021/09/22 09:59:11;;;;;;;10.80;3.33;;;;;;;;;;4980228;28;20038;-71
2021/09/22 10:02:24;;;;;;;9.32;3.67;;;;;;;;;;4992800;28;20030;-70
2021/09/22 10:05:29;;;;;;;12.75;3.63;;;;;;;;;;4992280;28;20054;-70
2021/09/22 10:08:34;;;;;;;18.88;4.38;;;;;;;;;;4992711;28;20034;-71
2021/09/22 10:11:40;;;;;;;14.52;4.05;;;;;;;;;;4980153;28;20379;-73
2021/09/22 10:14:46;;;;;;;10.85;3.78;;;;;;;;;;4992036;28;20049;-71
2021/09/22 10:17:51;;;;;;;26.58;4.95;;;;;;;;;;4992327;28;20043;-71
2021/09/22 10:20:59;;;;;;;12.43;3.72;;;;;;;;;;4980180;28;20051;-72
2021/09/22 10:23:37;;;;;;;43.03;6.80;;;;;;;;;;5068446;28;20402;-70
2021/09/22 10:26:15;;;;;;;14.32;3.88;;;;;;;;;;5109107;27;20395;-81
2021/09/22 10:28:58;;;;;;;19.17;4.38;;;;;;;;;;5109199;27;20383;-76
2021/09/22 10:31:38;;;;;;;25.88;4.97;;;;;;;;;;5068345;28;20395;-75
2021/09/22 10:34:28;;;;;;;30.48;5.95;;;;;;;;;;5109404;27;21048;-75
2021/09/22 10:37:26;;;;;;;10.63;3.58;;;;;;;;;;5129438;27;20131;-76
2021/09/22 10:40:05;;;;;;;24.55;5.43;;;;;;;;;;5068528;28;20405;-75
2021/09/22 10:42:45;;;;;;;10.45;3.22;;;;;;;;;;5068392;28;20406;-73
2021/09/22 10:45:56;;;;;;;26.67;5.55;;;;;;;;;;5056212;28;20481;-80
2021/09/22 10:48:35;;;;;;;24.65;4.90;;;;;;;;;;5069639;28;20441;-82
2021/09/22 10:51:13;;;;;;;15.52;4.10;;;;;;;;;;5069474;28;20433;-76
2021/09/22 10:54:03;;;;;;;43.70;7.40;;;;;;;;;;5068461;28;20391;-77
2021/09/22 10:56:48;;;;;;;13.55;4.38;;;;;;;;;;5106498;27;1335251;-77
2021/09/22 10:59:29;;;;;;;23.35;4.35;;;;;;;;;;5048309;28;20517;-77
2021/09/22 11:02:10;;;;;;;194.73;20.70;;;;;;;;;;5088171;27;20420;-77
2021/09/22 11:05:01;;;;;;;71.70;9.40;;;;;;;;;;5067741;28;20789;-75
2021/09/22 11:08:08;;;;;;;11.95;3.72;;;;;;;;;;5082465;27;1368908;-75
2021/09/22 11:10:53;;;;;;;31.25;5.25;;;;;;;;;;5129112;27;20140;-76
2021/09/22 11:13:33;;;;;;;11.48;3.78;;;;;;;;;;5129465;27;20389;-75
2021/09/22 11:16:12;;;;;;;15.13;4.28;;;;;;;;;;5108934;27;20433;-76
2021/09/22 11:18:51;;;;;;;7.18;3.65;;;;;;;;;;5068557;28;20386;-75
2021/09/22 11:21:29;;;;;;;6.30;2.97;;;;;;;;;;5068490;28;20382;-74
2021/09/22 11:24:12;;;;;;;11.20;3.35;;;;;;;;;;5068237;28;20413;-76
2021/09/22 11:26:53;;;;;;;11.18;3.53;;;;;;;;;;5068457;28;20393;-76
2021/09/22 11:29:36;;;;;;;31.80;5.28;;;;;;;;;;5068411;28;20390;-74
2021/09/22 11:32:26;;;;;;;10.48;3.20;;;;;;;;;;5108790;27;20372;-76
2021/09/22 11:35:05;;;;;;;6.60;3.22;;;;;;;;;;5068299;28;20378;-75
2021/09/22 11:37:44;;;;;;;11.88;3.50;;;;;;;;;;4989310;28;20396;-75
2021/09/22 11:40:30;;;;;;;6.47;2.90;;;;;;;;;;5109056;27;20384;-76
2021/09/22 11:43:13;;;;;;;9.88;3.75;;;;;;;;;;5068505;28;20416;-76
2021/09/22 11:45:58;;;;;;;9.88;3.38;;;;;;;;;;5068137;28;20390;-75
2021/09/22 11:48:36;;;;;;;9.00;2.95;;;;;;;;;;5068568;28;20386;-76
2021/09/22 11:51:15;;;;;;;11.88;2.95;;;;;;;;;;5068493;28;20395;-76
2021/09/22 11:53:53;;;;;;;6.15;3.22;;;;;;;;;;5068378;28;20386;-73
2021/09/22 11:56:31;;;;;;;7.03;3.10;;;;;;;;;;5067682;28;20444;-73
2021/09/22 11:59:15;;;;;;;9.48;3.05;;;;;;;;;;5108415;27;20376;-74
2021/09/22 12:01:55;;;;;;;12.07;2.90;;;;;;;;;;5068677;28;20409;-76
2021/09/22 12:04:45;;;;;;;8.38;3.08;;;;;;;;;;5108865;27;20384;-75
2021/09/22 12:07:28;;;;;;;9.60;3.20;;;;;;;;;;5068661;28;20383;-75
2021/09/22 12:10:09;;;;;;;5.75;2.60;;;;;;;;;;5068371;28;20683;-73
2021/09/22 12:12:46;;;;;;;8.52;2.80;;;;;;;;;;5068410;28;20990;-75
2021/09/22 12:15:24;;;;;;;7.10;2.40;;;;;;;;;;5069311;27;20916;-75
2021/09/22 12:18:04;;;;;;;8.13;2.33;;;;;;;;;;5170721;27;20395;-74
2021/09/22 12:20:43;;;;;;;9.25;3.15;;;;;;;;;;5068269;28;20393;-75
2021/09/22 12:23:26;;;;;;;4.30;2.53;;;;;;;;;;5068561;28;20452;-75
2021/09/22 12:26:14;;;;;;;6.38;2.97;;;;;;;;;;5068369;28;20456;-76
2021/09/22 12:29:07;;;;;;;6.65;2.90;;;;;;;;;;5068505;28;20386;-74
2021/09/22 12:31:45;;;;;;;10.18;2.70;;;;;;;;;;5068360;28;20872;-72
2021/09/22 12:34:27;;;;;;;7.53;2.72;;;;;;;;;;5170788;27;20387;-74
2021/09/22 12:37:15;;;;;;;5.65;2.50;;;;;;;;;;5088660;27;20405;-74
2021/09/22 12:39:58;;;;;;;8.30;2.90;;;;;;;;;;5005263;28;20137;-74
2021/09/22 12:42:42;;;;;;;5.28;2.50;;;;;;;;;;5068618;28;20382;-74
2021/09/22 12:45:23;;;;;;;11.40;2.85;;;;;;;;;;5068635;28;20448;-76
2021/09/22 12:48:02;;;;;;;7.72;2.50;;;;;;;;;;5109012;27;20124;-75
2021/09/22 12:50:43;;;;;;;10.75;2.20;;;;;;;;;;5110495;27;1342318;-74
2021/09/22 12:53:21;;;;;;;9.48;2.20;;;;;;;;;;5068593;28;20447;-75
2021/09/22 12:56:00;;;;;;;11.43;2.50;;;;;;;;;;5068728;28;20383;-74
2021/09/22 12:58:38;;;;;;;8.57;2.47;;;;;;;;;;5068303;28;20802;-75
2021/09/22 13:01:16;;;;;;;7.07;2.80;;;;;;;;;;5068344;28;21090;-74
2021/09/22 13:03:58;;;;;;;9.50;2.33;;;;;;;;;;5068289;28;21011;-74
2021/09/22 13:06:37;;;;;;;6.32;2.60;;;;;;;;;;5088663;27;20427;-74
2021/09/22 13:09:14;;;;;;;8.07;2.45;;;;;;;;;;5129004;27;20138;-80
2021/09/22 13:11:52;;;;;;;3.95;2.30;;;;;;;;;;5108793;27;20384;-71
2021/09/22 13:14:38;;;;;;;3.17;2.00;;;;;;;;;;5067371;28;20917;-73
2021/09/22 13:17:16;;;;;;;5.20;1.92;;;;;;;;;;5067105;28;20387;-71
2021/09/22 13:19:55;;;;;;;7.15;2.00;;;;;;;;;;5068447;28;20382;-72
2021/09/22 13:22:33;;;;;;;7.00;2.00;;;;;;;;;;5068573;28;20420;-71
2021/09/22 13:25:12;;;;;;;8.75;2.20;;;;;;;;;;5068390;28;20394;-70
2021/09/22 13:27:50;;;;;;;7.35;2.22;;;;;;;;;;5025065;28;20132;-73
2021/09/22 13:30:27;;;;;;;4.65;2.70;;;;;;;;;;5067957;28;20390;-70
2021/09/22 13:33:09;;;;;;;8.20;2.63;;;;;;;;;;5068263;28;21081;-72
2021/09/22 13:35:47;;;;;;;7.75;2.15;;;;;;;;;;5068379;28;21106;-71
2021/09/22 13:38:25;;;;;;;6.03;2.35;;;;;;;;;;5109357;27;20441;-70
2021/09/22 13:41:04;;;;;;;3.95;1.73;;;;;;;;;;5108891;27;20446;-71
2021/09/22 13:43:42;;;;;;;7.00;2.35;;;;;;;;;;5068315;28;20398;-68
2021/09/22 13:46:20;;;;;;;4.00;2.20;;;;;;;;;;5028553;28;20505;-69
2021/09/22 13:48:59;;;;;;;5.03;2.58;;;;;;;;;;5108768;27;20388;-70
2021/09/22 13:51:39;;;;;;;8.65;2.20;;;;;;;;;;5068222;28;20386;-71
2021/09/22 13:54:16;;;;;;;5.82;2.10;;;;;;;;;;5149833;27;20407;-70
2021/09/22 13:56:54;;;;;;;5.72;2.40;;;;;;;;;;5068065;28;20390;-71
2021/09/22 13:59:33;;;;;;;5.20;2.60;;;;;;;;;;5068206;28;20391;-71
2021/09/22 14:02:11;;;;;;;5.40;2.08;;;;;;;;;;5068571;28;20890;-70
2021/09/22 14:04:49;;;;;;;5.63;2.80;;;;;;;;;;5068600;28;20390;-70
2021/09/22 14:07:27;;;;;;;8.82;2.45;;;;;;;;;;5068537;28;20394;-68
2021/09/22 14:10:06;;;;;;;7.45;2.20;;;;;;;;;;5068296;28;20394;-69
2021/09/22 14:12:43;;;;;;;6.47;2.28;;;;;;;;;;5068479;28;20391;-71
2021/09/22 14:15:22;;;;;;;6.97;2.40;;;;;;;;;;5068168;28;20391;-73
2021/09/22 14:18:00;;;;;;;9.88;3.03;;;;;;;;;;5067236;28;20461;-71
2021/09/22 14:20:41;;;;;;;11.13;3.30;;;;;;;;;;5067910;28;20442;-71
2021/09/22 14:23:22;;;;;;;4.30;2.25;;;;;;;;;;5067445;28;20589;-74
2021/09/22 14:25:59;;;;;;;5.30;2.80;;;;;;;;;;5068325;28;20908;-70
2021/09/22 14:28:37;;;;;;;7.78;3.08;;;;;;;;;;5068567;28;20402;-70
2021/09/22 14:31:18;;;;;;;4.40;2.75;;;;;;;;;;5067887;28;20421;-71
2021/09/22 14:33:56;;;;;;;4.95;2.13;;;;;;;;;;5128844;27;20341;-72
2021/09/22 14:36:34;;;;;;;6.70;3.72;;;;;;;;;;5068069;28;20382;-69
2021/09/22 14:39:12;;;;;;;12.30;5.82;;;;;;;;;;5108749;27;20384;-72
2021/09/22 14:41:50;;;;;;;10.93;5.80;;;;;;;;;;5150053;27;20899;-73
2021/09/22 14:44:28;;;;;;;8.68;4.00;;;;;;;;;;5088356;28;20772;-72
2021/09/22 14:47:08;;;;;;;5.43;2.80;;;;;;;;;;5068098;28;20425;-73
2021/09/22 14:49:46;;;;;;;14.00;2.00;;;;;;;;;;5068117;28;20448;-72
2021/09/22 14:52:24;;;;;;;5.03;2.33;;;;;;;;;;5068044;28;20414;-73
2021/09/22 14:55:03;;;;;;;7.20;4.40;;;;;;;;;;5067942;28;20418;-71
2021/09/22 14:57:44;;;;;;;13.70;5.00;;;;;;;;;;5108252;27;20414;-73
2021/09/22 15:00:25;;;;;;;10.93;3.10;;;;;;;;;;5068258;28;20943;-73
2021/09/22 15:03:02;;;;;;;8.40;3.28;;;;;;;;;;5068147;28;20394;-72
2021/09/22 15:05:40;;;;;;;7.45;2.50;;;;;;;;;;5068149;28;20387;-71
2021/09/22 15:08:18;;;;;;;9.90;2.35;;;;;;;;;;5108786;27;20388;-73
2021/09/22 15:10:59;;;;;;;5.65;2.55;;;;;;;;;;5108465;27;20403;-69
2021/09/22 15:13:37;;;;;;;8.73;2.08;;;;;;;;;;5129232;27;20146;-72
2021/09/22 15:16:15;;;;;;;4.00;2.30;;;;;;;;;;5068084;28;20940;-69
2021/09/22 15:18:53;;;;;;;4.53;2.10;;;;;;;;;;5068634;28;20920;-71
2021/09/22 15:21:31;;;;;;;4.00;2.22;;;;;;;;;;5088518;28;20915;-69
2021/09/22 15:24:09;;;;;;;5.97;2.67;;;;;;;;;;5068242;28;20386;-71
2021/09/22 15:26:48;;;;;;;11.82;2.42;;;;;;;;;;5068216;28;20391;-70
2021/09/22 15:29:26;;;;;;;4.03;2.05;;;;;;;;;;5068007;28;20387;-68
2021/09/22 15:32:04;;;;;;;7.13;2.17;;;;;;;;;;5068947;28;20394;-70
2021/09/22 15:34:42;;;;;;;10.20;2.40;;;;;;;;;;5128480;27;20379;-69
2021/09/22 15:37:21;;;;;;;7.40;2.92;;;;;;;;;;5068051;28;20391;-70
2021/09/22 15:40:03;;;;;;;8.93;3.20;;;;;;;;;;5067975;28;20402;-70
2021/09/22 15:42:41;;;;;;;4.10;2.50;;;;;;;;;;5068331;28;20397;-70
2021/09/22 15:45:20;;;;;;;13.32;2.90;;;;;;;;;;5108132;27;20387;-70
2021/09/22 15:47:58;;;;;;;9.48;2.95;;;;;;;;;;5087227;27;20396;-71
2021/09/22 15:50:38;;;;;;;12.07;2.80;;;;;;;;;;5067237;28;20425;-69
2021/09/22 15:53:16;;;;;;;7.18;3.17;;;;;;;;;;5067445;28;20383;-70
2021/09/22 15:55:54;;;;;;;13.07;2.72;;;;;;;;;;5067441;28;20397;-72
2021/09/22 15:58:32;;;;;;;10.38;2.55;;;;;;;;;;5067769;28;20395;-71
2021/09/22 16:01:11;;;;;;;9.38;2.90;;;;;;;;;;5068008;28;20398;-72
2021/09/22 16:03:47;;;;;;;8.88;2.95;;;;;;;;;;5106248;27;1320987;-72
2021/09/22 16:06:28;;;;;;;6.80;2.30;;;;;;;;;;5087540;27;20420;-70
2021/09/22 16:09:06;;;;;;;7.47;2.67;;;;;;;;;;5127950;27;20338;-71
2021/09/22 16:11:43;;;;;;;7.10;2.80;;;;;;;;;;5067803;28;21110;-69
2021/09/22 16:14:21;;;;;;;9.10;2.60;;;;;;;;;;5108642;27;20936;-70
2021/09/22 16:17:00;;;;;;;4.60;2.63;;;;;;;;;;5067930;28;20909;-70
2021/09/22 16:19:38;;;;;;;7.20;2.47;;;;;;;;;;5067937;28;20399;-73
2021/09/22 16:22:16;;;;;;;10.63;2.78;;;;;;;;;;5067962;28;20387;-71
2021/09/22 16:24:54;;;;;;;5.05;2.20;;;;;;;;;;5067879;28;20705;-71
2021/09/22 16:27:33;;;;;;;9.25;2.53;;;;;;;;;;5068044;28;20387;-73
2021/09/22 16:30:11;;;;;;;6.47;2.03;;;;;;;;;;5067832;28;20383;-73
2021/09/22 16:32:49;;;;;;;10.10;2.17;;;;;;;;;;5128614;27;20390;-72
2021/09/22 16:35:27;;;;;;;5.82;2.25;;;;;;;;;;5067353;28;20405;-72
2021/09/22 16:38:05;;;;;;;10.73;2.53;;;;;;;;;;5067560;28;20406;-71
2021/09/22 16:40:44;;;;;;;12.73;3.50;;;;;;;;;;5067833;28;20386;-72
2021/09/22 16:43:25;;;;;;;11.45;2.65;;;;;;;;;;5067556;28;20398;-71
2021/09/22 16:46:03;;;;;;;12.82;2.88;;;;;;;;;;5067352;28;20402;-71
2021/09/22 16:48:41;;;;;;;6.03;2.80;;;;;;;;;;5067794;28;20456;-71
2021/09/22 16:51:22;;;;;;;7.05;2.63;;;;;;;;;;5067766;28;20418;-71
2021/09/22 16:54:06;;;;;;;12.75;3.10;;;;;;;;;;5067378;28;20391;-71
2021/09/22 16:56:44;;;;;;;18.30;2.90;;;;;;;;;;5066924;28;20394;-72
2021/09/22 16:59:22;;;;;;;13.48;3.33;;;;;;;;;;5067655;28;20387;-72
2021/09/22 17:02:00;;;;;;;9.05;2.78;;;;;;;;;;5007954;28;20914;-75
2021/09/22 17:04:39;;;;;;;10.60;2.83;;;;;;;;;;5087790;28;21004;-73
2021/09/22 17:07:17;;;;;;;10.00;3.15;;;;;;;;;;5067651;28;20397;-69
2021/09/22 17:09:55;;;;;;;6.65;3.22;;;;;;;;;;5067859;28;20390;-73
2021/09/22 17:12:33;;;;;;;15.07;3.70;;;;;;;;;;5067781;28;20397;-71
2021/09/22 17:15:11;;;;;;;9.40;3.38;;;;;;;;;;5066083;28;20391;-71
2021/09/22 17:17:50;;;;;;;14.15;3.92;;;;;;;;;;5066786;28;20386;-73
2021/09/22 17:20:29;;;;;;;5.57;3.55;;;;;;;;;;5067997;28;20398;-70
2021/09/22 17:23:07;;;;;;;8.35;3.42;;;;;;;;;;5067944;28;20386;-72
2021/09/22 17:25:48;;;;;;;7.65;3.00;;;;;;;;;;5067707;28;20458;-72
2021/09/22 17:28:26;;;;;;;8.00;2.97;;;;;;;;;;5067639;28;20398;-71
2021/09/22 17:31:05;;;;;;;11.68;3.10;;;;;;;;;;5068054;28;20393;-72